createdAt,value
2017-06-17T00:00:16.431Z,62.30
2017-06-17T00:02:42.833Z,61.20
2017-06-17T00:05:09.240Z,61.60
2017-06-17T00:07:35.689Z,61.90
2017-06-17T00:10:02.064Z,62.20
2017-06-17T00:12:28.436Z,62.90
2017-06-17T00:14:54.875Z,61.00
2017-06-17T00:17:21.276Z,62.10
2017-06-17T00:19:47.657Z,63.00
2017-06-17T00:22:14.908Z,63.10
2017-06-17T00:24:41.320Z,63.00
2017-06-17T00:27:07.724Z,63.20
2017-06-17T00:29:34.187Z,64.50
2017-06-17T00:32:00.600Z,64.60
2017-06-17T00:34:26.979Z,65.10
2017-06-17T00:36:54.153Z,65.90
2017-06-17T00:39:20.518Z,65.60
2017-06-17T00:41:46.927Z,65.30
2017-06-17T00:44:13.332Z,65.70
2017-06-17T00:46:39.721Z,65.80
2017-06-17T00:49:06.116Z,65.60
2017-06-17T00:51:32.524Z,65.50
2017-06-17T00:53:58.959Z,64.50
2017-06-17T00:56:26.119Z,64.90
2017-06-17T00:58:52.575Z,65.40
2017-06-17T01:01:19.007Z,65.90
2017-06-17T01:03:45.401Z,65.90
2017-06-17T01:06:11.838Z,65.70
2017-06-17T01:08:38.232Z,66.10
2017-06-17T01:11:04.616Z,65.70
2017-06-17T01:13:31.027Z,67.30
2017-06-17T01:15:57.392Z,66.70
2017-06-17T01:18:23.762Z,67.00
2017-06-17T01:20:50.208Z,66.80
2017-06-17T01:23:16.608Z,67.20
2017-06-17T01:25:50.154Z,68.70
2017-06-17T01:28:17.339Z,68.60
2017-06-17T01:30:43.775Z,68.60
2017-06-17T01:33:10.204Z,67.70
2017-06-17T01:35:36.590Z,68.20
2017-06-17T01:38:02.992Z,66.90
2017-06-17T01:40:29.534Z,68.20
2017-06-17T01:42:55.968Z,68.60
2017-06-17T01:45:22.384Z,68.00
2017-06-17T01:47:48.784Z,67.60
2017-06-17T01:50:15.194Z,68.10
2017-06-17T01:52:41.653Z,67.70
2017-06-17T01:55:08.149Z,67.80
2017-06-17T01:57:34.618Z,68.40
2017-06-17T02:00:01.032Z,68.10
2017-06-17T02:02:28.224Z,69.10
2017-06-17T02:04:54.648Z,69.10
2017-06-17T02:07:21.040Z,69.50
2017-06-17T02:09:47.472Z,69.40
2017-06-17T02:12:13.892Z,68.80
2017-06-17T02:14:40.808Z,70.30
2017-06-17T02:17:07.219Z,70.30
2017-06-17T02:19:33.637Z,70.00
2017-06-17T02:22:00.030Z,69.50
2017-06-17T02:24:26.468Z,71.40
2017-06-17T02:26:52.872Z,71.60
2017-06-17T02:29:19.251Z,70.60
2017-06-17T02:31:46.415Z,71.50
2017-06-17T02:34:12.900Z,71.50
2017-06-17T02:36:39.364Z,71.10
2017-06-17T02:39:05.764Z,71.80
2017-06-17T02:41:32.188Z,71.80
2017-06-17T02:43:58.568Z,69.70
2017-06-17T02:46:25.688Z,70.90
2017-06-17T02:48:52.175Z,71.30
2017-06-17T02:51:18.580Z,70.90
2017-06-17T02:53:44.987Z,71.90
2017-06-17T02:56:11.439Z,72.40
2017-06-17T02:58:37.872Z,71.50
2017-06-17T03:01:04.275Z,71.50
2017-06-17T03:03:30.659Z,72.20
2017-06-17T03:05:57.052Z,72.70
2017-06-17T03:08:23.451Z,72.90
2017-06-17T03:10:50.616Z,73.10
2017-06-17T03:13:17.031Z,72.90
2017-06-17T03:15:43.439Z,71.00
2017-06-17T03:18:09.811Z,72.60
2017-06-17T03:20:36.308Z,72.90
2017-06-17T03:23:02.723Z,73.80
2017-06-17T03:25:29.139Z,74.10
2017-06-17T03:27:55.515Z,74.80
2017-06-17T03:30:22.628Z,75.50
2017-06-17T03:32:49.776Z,75.60
2017-06-17T03:35:16.956Z,76.30
2017-06-17T03:37:43.399Z,76.20
2017-06-17T03:40:10.548Z,76.20
2017-06-17T03:42:37.697Z,76.30
2017-06-17T03:45:04.874Z,76.70
2017-06-17T03:47:31.687Z,76.70
2017-06-17T03:49:58.063Z,76.20
2017-06-17T03:52:24.487Z,76.40
2017-06-17T03:54:50.906Z,76.40
2017-06-17T03:57:17.292Z,76.80
2017-06-17T03:59:43.714Z,76.90
2017-06-17T04:02:10.128Z,77.00
2017-06-17T04:04:36.528Z,78.30
2017-06-17T04:07:02.942Z,76.70
2017-06-17T04:09:29.504Z,76.80
2017-06-17T04:11:55.880Z,76.70
2017-06-17T04:14:22.292Z,76.60
2017-06-17T04:16:48.734Z,77.00
2017-06-17T04:19:15.145Z,77.70
2017-06-17T04:21:41.561Z,76.80
2017-06-17T04:24:07.987Z,76.80
2017-06-17T04:26:34.396Z,77.60
2017-06-17T04:29:00.843Z,76.20
2017-06-17T04:31:27.280Z,76.50
2017-06-17T04:33:53.700Z,77.70
2017-06-17T04:36:20.156Z,76.20
2017-06-17T04:38:46.620Z,76.50
2017-06-17T04:41:13.736Z,74.90
2017-06-17T04:43:40.124Z,74.90
2017-06-17T04:46:07.831Z,74.80
2017-06-17T04:48:34.272Z,74.70
2017-06-17T04:51:00.679Z,74.70
2017-06-17T04:53:27.102Z,74.80
2017-06-17T04:55:53.464Z,75.80
2017-06-17T04:58:19.880Z,76.40
2017-06-17T05:00:47.064Z,74.90
2017-06-17T05:03:13.480Z,75.40
2017-06-17T05:05:39.905Z,74.30
2017-06-17T05:08:06.357Z,73.70
2017-06-17T05:10:32.748Z,73.90
2017-06-17T05:12:59.133Z,72.90
2017-06-17T05:15:25.496Z,73.30
2017-06-17T05:17:51.932Z,72.70
2017-06-17T05:20:18.333Z,72.70
2017-06-17T05:22:44.821Z,72.80
2017-06-17T05:25:12.016Z,72.30
2017-06-17T05:27:38.459Z,71.40
2017-06-17T05:30:04.914Z,71.40
2017-06-17T05:32:31.354Z,71.20
2017-06-17T05:34:57.843Z,72.30
2017-06-17T05:37:24.284Z,69.30
2017-06-17T05:39:50.680Z,70.40
2017-06-17T05:42:17.098Z,71.00
2017-06-17T05:44:43.506Z,69.70
2017-06-17T05:47:10.067Z,69.00
2017-06-17T05:49:36.538Z,68.70
2017-06-17T05:52:02.970Z,68.20
2017-06-17T05:54:29.343Z,68.70
2017-06-17T05:56:55.803Z,68.70
2017-06-17T05:59:22.167Z,68.80
2017-06-17T06:01:48.540Z,67.10
2017-06-17T06:04:14.954Z,66.40
2017-06-17T06:06:41.448Z,67.00
2017-06-17T06:09:07.836Z,67.10
2017-06-17T06:11:34.232Z,63.50
2017-06-17T06:14:00.624Z,65.00
2017-06-17T06:16:27.012Z,63.50
2017-06-17T06:18:54.508Z,60.80
2017-06-17T06:21:21.171Z,60.50
2017-06-17T06:23:47.556Z,61.70
2017-06-17T06:26:13.939Z,59.90
2017-06-17T06:28:40.435Z,61.20
2017-06-17T06:31:06.848Z,59.80
2017-06-17T06:33:33.354Z,58.70
2017-06-17T06:35:59.855Z,58.60
2017-06-17T06:38:26.348Z,59.80
2017-06-17T06:40:52.789Z,58.00
2017-06-17T06:43:19.282Z,57.70
2017-06-17T06:45:45.676Z,58.40
2017-06-17T06:48:12.175Z,57.90
2017-06-17T06:50:38.612Z,58.10
2017-06-17T06:53:05.007Z,59.90
2017-06-17T06:55:31.479Z,60.50
2017-06-17T06:57:57.888Z,58.30
2017-06-17T07:00:24.279Z,58.30
2017-06-17T07:02:50.854Z,57.80
2017-06-17T07:05:17.286Z,60.00
2017-06-17T07:07:44.392Z,59.50
2017-06-17T07:10:10.808Z,59.40
2017-06-17T07:12:37.266Z,57.00
2017-06-17T07:15:03.803Z,57.50
2017-06-17T07:17:30.236Z,57.40
2017-06-17T07:19:56.689Z,57.30
2017-06-17T07:22:23.119Z,56.20
2017-06-17T07:24:49.535Z,56.60
2017-06-17T07:27:16.313Z,58.60
2017-06-17T07:29:42.676Z,56.60
2017-06-17T07:32:09.075Z,56.50
2017-06-17T07:34:35.503Z,57.00
2017-06-17T07:37:01.811Z,56.60
2017-06-17T07:39:28.126Z,57.00
2017-06-17T07:41:54.411Z,58.80
2017-06-17T07:44:21.420Z,58.50
2017-06-17T07:49:21.486Z,56.50
2017-06-17T07:51:47.779Z,55.20
2017-06-17T07:54:14.054Z,55.60
2017-06-17T07:56:41.214Z,56.20
2017-06-17T07:59:08.258Z,56.90
2017-06-17T08:01:35.371Z,54.40
2017-06-17T08:04:01.673Z,54.40
2017-06-17T08:06:28.052Z,56.20
2017-06-17T08:08:55.067Z,56.60
2017-06-17T08:11:22.194Z,51.70
2017-06-17T08:13:48.482Z,51.70
2017-06-17T08:16:14.779Z,50.70
2017-06-17T08:18:41.067Z,53.70
2017-06-17T08:21:07.355Z,54.10
2017-06-17T08:23:33.628Z,52.50
2017-06-17T08:25:59.915Z,49.90
2017-06-17T08:28:26.222Z,52.80
2017-06-17T08:30:52.498Z,52.20
2017-06-17T08:33:19.534Z,51.30
2017-06-17T08:35:45.825Z,51.30
2017-06-17T08:38:12.078Z,51.30
2017-06-17T08:40:38.386Z,51.70
2017-06-17T08:43:04.680Z,51.90
2017-06-17T08:45:30.946Z,51.50
2017-06-17T08:47:57.234Z,50.20
2017-06-17T08:50:24.276Z,52.90
2017-06-17T08:52:51.290Z,52.50
2017-06-17T08:55:17.591Z,52.40
2017-06-17T08:57:43.937Z,53.50
2017-06-17T09:00:10.990Z,53.40
2017-06-17T09:02:37.286Z,53.40
2017-06-17T09:05:03.562Z,52.80
2017-06-17T09:07:29.845Z,55.00
2017-06-17T09:09:56.226Z,54.30
2017-06-17T09:12:22.526Z,55.20
2017-06-17T09:14:48.778Z,55.80
2017-06-17T09:17:15.091Z,54.80
2017-06-17T09:19:41.380Z,54.40
2017-06-17T09:22:07.647Z,51.80
2017-06-17T09:24:33.930Z,53.90
2017-06-17T09:27:00.212Z,53.70
2017-06-17T09:29:26.478Z,54.10
2017-06-17T09:31:52.799Z,53.00
2017-06-17T09:34:19.103Z,54.60
2017-06-17T09:36:45.406Z,53.10
2017-06-17T09:39:11.707Z,54.30
2017-06-17T09:41:38.011Z,53.80
2017-06-17T09:44:04.283Z,54.70
2017-06-17T09:46:30.567Z,54.50
2017-06-17T09:48:56.860Z,54.60
2017-06-17T09:51:23.150Z,55.10
2017-06-17T09:53:49.443Z,54.20
2017-06-17T09:56:15.799Z,54.60
2017-06-17T09:58:42.187Z,54.80
2017-06-17T10:01:09.216Z,52.90
2017-06-17T10:03:35.865Z,52.90
2017-06-17T10:06:02.151Z,53.30
2017-06-17T10:08:28.438Z,53.00
2017-06-17T10:10:54.729Z,52.60
2017-06-17T10:13:21.011Z,53.70
2017-06-17T10:15:47.311Z,50.70
2017-06-17T10:18:14.346Z,52.20
2017-06-17T10:20:46.519Z,52.10
2017-06-17T10:23:12.807Z,53.30
2017-06-17T10:25:39.082Z,54.30
2017-06-17T10:28:05.415Z,55.10
2017-06-17T10:30:31.744Z,50.90
2017-06-17T10:32:58.159Z,53.70
2017-06-17T10:35:24.502Z,50.80
2017-06-17T10:37:50.779Z,51.00
2017-06-17T10:40:17.076Z,52.80
2017-06-17T10:42:43.342Z,52.00
2017-06-17T10:45:09.659Z,52.10
2017-06-17T10:47:35.983Z,52.20
2017-06-17T10:50:02.265Z,55.00
2017-06-17T10:52:28.562Z,53.60
2017-06-17T10:54:55.574Z,54.60
2017-06-17T10:57:21.847Z,55.20
2017-06-17T10:59:48.123Z,54.70
2017-06-17T11:02:16.035Z,55.00
2017-06-17T11:04:42.363Z,54.90
2017-06-17T11:07:08.795Z,56.40
2017-06-17T11:09:35.233Z,55.60
2017-06-17T11:12:01.762Z,55.00
2017-06-17T11:14:28.156Z,54.20
2017-06-17T11:16:54.668Z,54.60
2017-06-17T11:19:21.791Z,55.00
2017-06-17T11:21:48.940Z,58.00
2017-06-17T11:24:16.154Z,55.20
2017-06-17T11:26:43.264Z,55.70
2017-06-17T11:29:09.611Z,55.70
2017-06-17T11:31:36.732Z,55.20
2017-06-17T11:34:03.839Z,55.70
2017-06-17T11:36:30.231Z,55.60
2017-06-17T11:38:56.627Z,56.50
2017-06-17T11:41:22.982Z,59.50
2017-06-17T11:43:49.359Z,54.00
2017-06-17T11:46:16.523Z,54.60
2017-06-17T11:48:42.934Z,54.60
2017-06-17T11:51:09.348Z,54.60
2017-06-17T11:53:35.748Z,52.60
2017-06-17T11:56:02.150Z,53.80
2017-06-17T11:58:29.316Z,52.30
2017-06-17T12:00:55.752Z,52.30
2017-06-17T12:03:22.119Z,52.60
2017-06-17T12:05:48.480Z,54.20
2017-06-17T12:08:14.896Z,53.20
2017-06-17T12:10:41.399Z,53.60
2017-06-17T12:13:09.011Z,51.00
2017-06-17T12:15:35.465Z,52.20
2017-06-17T12:18:01.893Z,51.20
2017-06-17T12:20:28.244Z,53.00
2017-06-17T12:22:54.613Z,53.50
2017-06-17T12:25:21.000Z,54.00
2017-06-17T12:27:47.415Z,52.70
2017-06-17T12:30:13.865Z,53.20
2017-06-17T12:32:40.245Z,52.30
2017-06-17T12:35:06.595Z,53.60
2017-06-17T12:37:32.941Z,52.80
2017-06-17T12:39:59.299Z,53.10
2017-06-17T12:42:25.640Z,54.50
2017-06-17T12:44:52.063Z,53.40
2017-06-17T12:47:19.213Z,54.60
2017-06-17T12:49:45.687Z,54.60
2017-06-17T12:52:12.788Z,53.30
2017-06-17T12:54:39.897Z,54.10
2017-06-17T12:57:06.347Z,54.10
2017-06-17T12:59:33.476Z,56.20
2017-06-17T13:02:00.727Z,55.70
2017-06-17T13:04:27.847Z,56.70
2017-06-17T13:06:54.236Z,56.70
2017-06-17T13:09:20.668Z,57.10
2017-06-17T13:11:47.010Z,56.20
2017-06-17T13:14:14.135Z,56.50
2017-06-17T13:16:40.501Z,56.50
2017-06-17T13:19:06.847Z,57.00
2017-06-17T13:21:33.352Z,56.50
2017-06-17T13:23:59.731Z,56.60
2017-06-17T13:26:26.063Z,56.40
2017-06-17T13:28:53.184Z,57.70
2017-06-17T13:31:20.304Z,56.50
2017-06-17T13:33:46.694Z,56.50
2017-06-17T13:36:13.107Z,56.00
2017-06-17T13:38:39.520Z,56.40
2017-06-17T13:41:05.915Z,57.00
2017-06-17T13:43:32.259Z,56.80
2017-06-17T13:45:58.852Z,56.50
2017-06-17T13:48:25.219Z,59.10
2017-06-17T13:50:51.619Z,57.30
2017-06-17T13:53:18.027Z,58.20
2017-06-17T13:55:44.480Z,59.50
2017-06-17T13:58:10.835Z,59.40
2017-06-17T14:00:37.299Z,58.00
2017-06-17T14:03:03.671Z,59.30
2017-06-17T14:05:30.032Z,58.70
2017-06-17T14:07:56.460Z,58.00
2017-06-17T14:10:22.816Z,58.90
2017-06-17T14:12:49.985Z,59.10
2017-06-17T14:15:16.769Z,59.10
2017-06-17T14:17:43.332Z,59.00
2017-06-17T14:20:09.683Z,59.10
2017-06-17T14:22:36.863Z,61.60
2017-06-17T14:25:03.215Z,61.70
2017-06-17T14:27:29.563Z,61.50
2017-06-17T14:29:56.182Z,60.20
2017-06-17T14:32:22.595Z,60.90
2017-06-17T14:34:48.973Z,59.50
2017-06-17T14:37:15.364Z,59.50
2017-06-17T14:39:41.711Z,59.30
2017-06-17T14:42:08.059Z,60.20
2017-06-17T14:44:35.228Z,58.50
2017-06-17T14:47:01.657Z,58.50
2017-06-17T14:49:28.124Z,58.90
2017-06-17T14:51:54.520Z,58.40
2017-06-17T14:54:20.871Z,58.10
2017-06-17T14:56:47.236Z,57.80
2017-06-17T14:59:13.643Z,58.00
2017-06-17T15:01:39.987Z,56.60
2017-06-17T15:04:06.312Z,57.20
2017-06-17T15:06:32.691Z,57.10
2017-06-17T15:08:59.057Z,57.30
2017-06-17T15:11:26.203Z,57.50
2017-06-17T15:13:52.700Z,57.50
2017-06-17T15:16:19.084Z,57.90
2017-06-17T15:18:45.459Z,58.10
2017-06-17T15:21:11.924Z,57.30
2017-06-17T15:23:38.321Z,58.00
2017-06-17T15:26:04.672Z,57.10
2017-06-17T15:28:31.111Z,57.00
2017-06-17T15:30:57.507Z,56.50
2017-06-17T15:33:23.851Z,56.60
2017-06-17T15:35:50.271Z,56.50
2017-06-17T15:38:17.376Z,56.40
2017-06-17T15:40:43.728Z,56.40
2017-06-17T15:43:10.119Z,56.30
2017-06-17T15:45:37.279Z,55.90
2017-06-17T15:48:04.411Z,56.00
2017-06-17T15:50:30.831Z,56.00
2017-06-17T15:52:57.955Z,55.70
2017-06-17T15:55:24.323Z,55.70
2017-06-17T15:57:50.681Z,55.60
2017-06-17T16:00:17.108Z,55.80
2017-06-17T16:02:43.524Z,56.80
2017-06-17T16:05:10.658Z,57.10
2017-06-17T16:07:37.769Z,56.90
2017-06-17T16:10:04.911Z,57.40
2017-06-17T16:12:31.340Z,57.40
2017-06-17T16:14:58.432Z,57.40
2017-06-17T16:17:24.799Z,57.40
2017-06-17T16:19:51.176Z,58.00
2017-06-17T16:22:17.545Z,56.70
2017-06-17T16:24:43.919Z,57.50
2017-06-17T16:27:11.068Z,57.40
2017-06-17T16:29:38.217Z,57.10
2017-06-17T16:32:04.616Z,57.10
2017-06-17T16:34:31.055Z,57.30
2017-06-17T16:36:57.410Z,56.80
2017-06-17T16:39:24.217Z,57.10
2017-06-17T16:41:50.609Z,57.00
2017-06-17T16:44:17.924Z,56.20
2017-06-17T16:46:44.348Z,56.70
2017-06-17T16:49:11.480Z,57.50
2017-06-17T16:51:38.625Z,57.80
2017-06-17T16:54:05.027Z,57.80
2017-06-17T16:56:32.143Z,58.40
2017-06-17T16:58:58.483Z,58.40
2017-06-17T17:01:24.852Z,57.60
2017-06-17T17:03:51.251Z,57.40
2017-06-17T17:06:17.636Z,59.00
2017-06-17T17:08:44.059Z,58.30
2017-06-17T17:11:10.497Z,57.50
2017-06-17T17:13:36.836Z,58.00
2017-06-17T17:16:03.207Z,58.40
2017-06-17T17:18:29.625Z,58.30
2017-06-17T17:20:56.072Z,58.20
2017-06-17T17:23:22.489Z,58.60
2017-06-17T17:25:48.908Z,59.50
2017-06-17T17:28:15.365Z,59.30
2017-06-17T17:30:41.852Z,59.50
2017-06-17T17:33:08.277Z,59.30
2017-06-17T17:35:34.672Z,59.90
2017-06-17T17:38:01.120Z,60.00
2017-06-17T17:40:27.563Z,60.80
2017-06-17T17:42:53.924Z,61.20
2017-06-17T17:45:20.352Z,61.30
2017-06-17T17:47:46.794Z,61.90
2017-06-17T17:50:13.757Z,62.00
2017-06-17T17:52:40.168Z,62.40
2017-06-17T17:55:06.541Z,63.00
2017-06-17T17:57:32.895Z,63.60
2017-06-17T17:59:59.356Z,63.30
2017-06-17T18:02:25.804Z,64.40
2017-06-17T18:04:52.911Z,63.80
2017-06-17T18:07:20.093Z,65.40
2017-06-17T18:09:46.545Z,65.40
2017-06-17T18:12:12.944Z,67.00
2017-06-17T18:14:39.324Z,65.60
2017-06-17T18:17:05.748Z,65.90
2017-06-17T18:19:32.135Z,64.60
2017-06-17T18:21:58.524Z,66.10
2017-06-17T18:24:24.983Z,66.90
2017-06-17T18:26:51.390Z,67.60
2017-06-17T18:29:18.040Z,68.50
2017-06-17T18:31:45.167Z,69.60
2017-06-17T18:34:11.549Z,69.50
2017-06-17T18:36:37.983Z,69.50
2017-06-17T18:39:05.176Z,69.60
2017-06-17T18:41:32.341Z,69.80
2017-06-17T18:43:58.763Z,69.50
2017-06-17T18:46:25.172Z,70.50
2017-06-17T18:48:52.345Z,71.10
2017-06-17T18:51:18.760Z,71.20
2017-06-17T18:53:45.353Z,70.10
2017-06-17T18:56:11.838Z,70.70
2017-06-17T18:58:38.973Z,70.20
2017-06-17T19:01:06.135Z,71.50
2017-06-17T19:03:34.029Z,71.30
2017-06-17T19:06:00.476Z,71.30
2017-06-17T19:08:26.850Z,71.40
2017-06-17T19:10:53.201Z,71.30
2017-06-17T19:13:20.460Z,72.30
2017-06-17T19:15:47.578Z,72.00
2017-06-17T19:18:13.948Z,71.90
2017-06-17T19:20:40.372Z,73.00
2017-06-17T19:23:06.779Z,72.30
2017-06-17T19:25:33.475Z,72.90
2017-06-17T19:27:59.891Z,73.80
2017-06-17T19:30:26.288Z,72.60
2017-06-17T19:32:52.704Z,73.70
2017-06-17T19:35:19.912Z,71.80
2017-06-17T19:37:46.288Z,71.70
2017-06-17T19:40:12.716Z,71.70
2017-06-17T19:42:39.145Z,72.20
2017-06-17T19:45:05.614Z,71.80
2017-06-17T19:47:32.027Z,71.70
2017-06-17T19:49:58.496Z,72.10
2017-06-17T19:52:24.883Z,72.10
2017-06-17T19:54:51.976Z,73.10
2017-06-17T19:57:18.413Z,73.00
2017-06-17T19:59:44.793Z,74.80
2017-06-17T20:02:11.208Z,74.90
2017-06-17T20:04:37.672Z,75.30
2017-06-17T20:07:04.805Z,75.30
2017-06-17T20:09:31.953Z,76.30
2017-06-17T20:11:58.410Z,76.30
2017-06-17T20:14:24.788Z,77.40
2017-06-17T20:16:51.176Z,78.00
2017-06-17T20:19:17.609Z,76.90
2017-06-17T20:22:02.644Z,77.60
2017-06-17T20:24:30.878Z,77.60
2017-06-17T20:26:57.280Z,78.70
2017-06-17T20:29:23.720Z,77.90
2017-06-17T20:31:50.270Z,78.10
2017-06-17T20:34:16.614Z,79.20
2017-06-17T20:36:43.000Z,78.80
2017-06-17T20:39:09.431Z,79.10
2017-06-17T20:41:36.635Z,80.40
2017-06-17T20:44:03.042Z,80.40
2017-06-17T20:46:29.496Z,80.70
2017-06-17T20:48:55.911Z,80.30
2017-06-17T20:51:22.311Z,80.10
2017-06-17T20:53:48.749Z,80.60
2017-06-17T20:56:15.153Z,81.40
2017-06-17T20:58:42.332Z,81.60
2017-06-17T21:01:08.785Z,81.40
2017-06-17T21:03:35.262Z,81.30
2017-06-17T21:06:01.655Z,81.20
2017-06-17T21:08:28.147Z,81.40
2017-06-17T21:10:54.600Z,81.50
2017-06-17T21:13:20.960Z,81.40
2017-06-17T21:15:47.383Z,82.10
2017-06-17T21:18:13.777Z,81.70
2017-06-17T21:20:40.479Z,81.90
2017-06-17T21:23:07.049Z,81.40
2017-06-17T21:25:33.431Z,82.10
2017-06-17T21:27:59.824Z,81.80
2017-06-17T21:30:26.294Z,81.30
2017-06-17T21:32:52.655Z,81.20
2017-06-17T21:35:19.039Z,82.50
2017-06-17T21:37:45.491Z,81.30
2017-06-17T21:40:12.144Z,82.10
2017-06-17T21:42:39.692Z,82.80
2017-06-17T21:45:06.568Z,82.70
2017-06-17T21:47:34.633Z,84.10
2017-06-17T21:50:01.246Z,84.10
2017-06-17T21:52:27.742Z,83.20
2017-06-17T21:54:54.944Z,84.90
2017-06-17T21:57:21.451Z,84.10
2017-06-17T21:59:47.877Z,82.60
2017-06-17T22:02:14.297Z,83.10
2017-06-17T22:04:40.703Z,82.00
2017-06-17T22:07:07.182Z,83.20
2017-06-17T22:09:34.053Z,84.40
2017-06-17T22:12:00.424Z,83.70
2017-06-17T22:14:40.779Z,85.30
2017-06-17T22:17:08.116Z,84.70
2017-06-17T22:19:34.521Z,84.20
2017-06-17T22:22:01.546Z,83.30
2017-06-17T22:24:28.184Z,83.10
2017-06-17T22:26:54.687Z,84.20
2017-06-17T22:29:21.537Z,84.60
2017-06-17T22:31:48.151Z,85.40
2017-06-17T22:34:14.540Z,86.00
2017-06-17T22:36:41.195Z,85.00
2017-06-17T22:39:07.598Z,84.60
2017-06-17T22:41:34.633Z,85.00
2017-06-17T22:44:01.340Z,84.60
2017-06-17T22:46:28.707Z,85.20
2017-06-17T22:48:55.065Z,85.10
2017-06-17T22:51:23.601Z,85.10
2017-06-17T22:53:50.139Z,85.10
2017-06-17T22:56:16.515Z,85.40
2017-06-17T22:58:42.942Z,86.00
2017-06-17T23:01:09.348Z,85.00
2017-06-17T23:03:36.471Z,85.10
2017-06-17T23:06:03.092Z,85.10
2017-06-17T23:08:29.651Z,84.60
2017-06-17T23:10:56.124Z,84.60
2017-06-17T23:13:22.506Z,85.30
2017-06-17T23:15:48.936Z,85.30
2017-06-17T23:18:15.304Z,86.20
2017-06-17T23:20:41.720Z,86.20
2017-06-17T23:23:08.159Z,86.30
2017-06-17T23:25:34.495Z,87.00
2017-06-17T23:28:00.875Z,86.50
2017-06-17T23:30:27.314Z,86.30
2017-06-17T23:32:53.678Z,86.10
2017-06-17T23:35:20.120Z,86.10
2017-06-17T23:37:46.532Z,86.00
2017-06-17T23:40:13.643Z,86.20
2017-06-17T23:42:40.796Z,86.20
2017-06-17T23:45:07.196Z,86.10
2017-06-17T23:47:34.312Z,85.90
2017-06-17T23:50:00.747Z,85.90
2017-06-17T23:52:27.886Z,85.50
2017-06-17T23:54:55.019Z,86.10
2017-06-17T23:57:22.256Z,86.40
2017-06-17T23:59:48.683Z,86.30
